sensor_id;sensor_type;location;lat;lon;timestamp;P1;durP1;ratioP1;P2;durP2;ratioP2
23802;SDS011;12082;51.786;6.018;2022-08-20T00:01:36;13.40;;;9.47;;
23802;SDS011;12082;51.786;6.018;2022-08-20T00:04:02;11.60;;;8.13;;
23802;SDS011;12082;51.786;6.018;2022-08-20T00:06:28;18.80;;;11.00;;
23802;SDS011;12082;51.786;6.018;2022-08-20T00:08:53;20.83;;;11.87;;
23802;SDS011;12082;51.786;6.018;2022-08-20T00:11:21;18.53;;;11.50;;
23802;SDS011;12082;51.786;6.018;2022-08-20T00:13:50;24.43;;;13.17;;
23802;SDS011;12082;51.786;6.018;2022-08-20T00:16:18;19.10;;;11.87;;
23802;SDS011;12082;51.786;6.018;2022-08-20T00:18:47;23.33;;;12.87;;
23802;SDS011;12082;51.786;6.018;2022-08-20T00:21:14;19.97;;;12.33;;
23802;SDS011;12082;51.786;6.018;2022-08-20T00:23:43;20.83;;;12.60;;
23802;SDS011;12082;51.786;6.018;2022-08-20T00:26:11;21.63;;;12.20;;
23802;SDS011;12082;51.786;6.018;2022-08-20T00:28:38;19.10;;;10.60;;
23802;SDS011;12082;51.786;6.018;2022-08-20T00:31:05;17.03;;;11.23;;
23802;SDS011;12082;51.786;6.018;2022-08-20T00:33:33;20.43;;;13.03;;
23802;SDS011;12082;51.786;6.018;2022-08-20T00:35:59;19.10;;;11.50;;
23802;SDS011;12082;51.786;6.018;2022-08-20T00:38:31;17.20;;;10.67;;
23802;SDS011;12082;51.786;6.018;2022-08-20T00:40:58;22.40;;;11.93;;
23802;SDS011;12082;51.786;6.018;2022-08-20T00:45:59;15.90;;;9.80;;
23802;SDS011;12082;51.786;6.018;2022-08-20T00:48:28;15.33;;;9.77;;
23802;SDS011;12082;51.786;6.018;2022-08-20T00:50:58;17.97;;;10.30;;
23802;SDS011;12082;51.786;6.018;2022-08-20T00:53:29;17.53;;;9.63;;
23802;SDS011;12082;51.786;6.018;2022-08-20T00:55:56;17.73;;;9.87;;
23802;SDS011;12082;51.786;6.018;2022-08-20T00:58:22;21.10;;;11.73;;
23802;SDS011;12082;51.786;6.018;2022-08-20T01:00:48;26.17;;;13.77;;
23802;SDS011;12082;51.786;6.018;2022-08-20T01:03:15;21.13;;;13.37;;
23802;SDS011;12082;51.786;6.018;2022-08-20T01:05:45;26.20;;;13.73;;
23802;SDS011;12082;51.786;6.018;2022-08-20T01:08:14;20.27;;;11.90;;
23802;SDS011;12082;51.786;6.018;2022-08-20T01:10:42;24.63;;;13.30;;
23802;SDS011;12082;51.786;6.018;2022-08-20T01:13:13;28.47;;;14.23;;
23802;SDS011;12082;51.786;6.018;2022-08-20T01:15:43;20.90;;;13.37;;
23802;SDS011;12082;51.786;6.018;2022-08-20T01:18:14;20.37;;;12.17;;
23802;SDS011;12082;51.786;6.018;2022-08-20T01:20:46;22.73;;;13.10;;
23802;SDS011;12082;51.786;6.018;2022-08-20T01:31:09;29.90;;;14.37;;
23802;SDS011;12082;51.786;6.018;2022-08-20T01:33:40;26.93;;;14.83;;
23802;SDS011;12082;51.786;6.018;2022-08-20T01:36:06;26.13;;;15.80;;
23802;SDS011;12082;51.786;6.018;2022-08-20T01:38:33;23.97;;;13.97;;
23802;SDS011;12082;51.786;6.018;2022-08-20T01:43:46;26.87;;;14.20;;
23802;SDS011;12082;51.786;6.018;2022-08-20T01:46:14;25.80;;;14.20;;
23802;SDS011;12082;51.786;6.018;2022-08-20T01:48:42;27.17;;;13.87;;
23802;SDS011;12082;51.786;6.018;2022-08-20T01:51:10;25.57;;;14.07;;
23802;SDS011;12082;51.786;6.018;2022-08-20T01:53:41;21.83;;;13.13;;
23802;SDS011;12082;51.786;6.018;2022-08-20T01:56:10;27.50;;;14.63;;
23802;SDS011;12082;51.786;6.018;2022-08-20T01:58:42;31.13;;;14.23;;
23802;SDS011;12082;51.786;6.018;2022-08-20T02:03:48;29.57;;;15.47;;
23802;SDS011;12082;51.786;6.018;2022-08-20T02:06:14;30.00;;;15.47;;
23802;SDS011;12082;51.786;6.018;2022-08-20T02:08:40;27.50;;;15.50;;
23802;SDS011;12082;51.786;6.018;2022-08-20T02:11:06;29.33;;;16.90;;
23802;SDS011;12082;51.786;6.018;2022-08-20T02:13:33;27.17;;;14.67;;
23802;SDS011;12082;51.786;6.018;2022-08-20T02:15:59;28.97;;;16.03;;
23802;SDS011;12082;51.786;6.018;2022-08-20T02:18:24;24.57;;;15.03;;
23802;SDS011;12082;51.786;6.018;2022-08-20T02:20:51;22.63;;;13.80;;
23802;SDS011;12082;51.786;6.018;2022-08-20T02:23:17;27.70;;;15.07;;
23802;SDS011;12082;51.786;6.018;2022-08-20T02:25:43;28.33;;;13.67;;
23802;SDS011;12082;51.786;6.018;2022-08-20T02:28:14;25.10;;;14.27;;
23802;SDS011;12082;51.786;6.018;2022-08-20T02:30:43;25.43;;;13.63;;
23802;SDS011;12082;51.786;6.018;2022-08-20T02:33:11;20.80;;;12.63;;
23802;SDS011;12082;51.786;6.018;2022-08-20T02:35:39;22.80;;;13.03;;
23802;SDS011;12082;51.786;6.018;2022-08-20T02:38:06;22.07;;;14.03;;
23802;SDS011;12082;51.786;6.018;2022-08-20T02:40:33;23.33;;;14.47;;
23802;SDS011;12082;51.786;6.018;2022-08-20T02:43:00;27.43;;;15.93;;
23802;SDS011;12082;51.786;6.018;2022-08-20T02:45:28;22.77;;;14.30;;
23802;SDS011;12082;51.786;6.018;2022-08-20T02:47:55;26.33;;;14.40;;
23802;SDS011;12082;51.786;6.018;2022-08-20T02:50:23;22.30;;;13.07;;
23802;SDS011;12082;51.786;6.018;2022-08-20T02:52:50;24.70;;;14.27;;
23802;SDS011;12082;51.786;6.018;2022-08-20T02:55:16;24.37;;;15.77;;
23802;SDS011;12082;51.786;6.018;2022-08-20T02:57:42;23.70;;;14.60;;
23802;SDS011;12082;51.786;6.018;2022-08-20T03:00:10;23.63;;;13.13;;
23802;SDS011;12082;51.786;6.018;2022-08-20T03:02:39;23.63;;;13.57;;
23802;SDS011;12082;51.786;6.018;2022-08-20T03:05:05;24.57;;;15.03;;
23802;SDS011;12082;51.786;6.018;2022-08-20T03:07:31;25.47;;;13.97;;
23802;SDS011;12082;51.786;6.018;2022-08-20T03:09:57;22.20;;;13.07;;
23802;SDS011;12082;51.786;6.018;2022-08-20T03:12:23;17.20;;;11.03;;
23802;SDS011;12082;51.786;6.018;2022-08-20T03:14:48;19.93;;;11.87;;
23802;SDS011;12082;51.786;6.018;2022-08-20T03:17:14;20.70;;;13.60;;
23802;SDS011;12082;51.786;6.018;2022-08-20T03:19:40;23.87;;;15.47;;
23802;SDS011;12082;51.786;6.018;2022-08-20T03:22:06;19.60;;;12.43;;
23802;SDS011;12082;51.786;6.018;2022-08-20T03:24:31;19.33;;;12.40;;
23802;SDS011;12082;51.786;6.018;2022-08-20T03:26:57;18.07;;;12.07;;
23802;SDS011;12082;51.786;6.018;2022-08-20T03:29:22;23.30;;;12.27;;
23802;SDS011;12082;51.786;6.018;2022-08-20T03:31:48;18.50;;;12.07;;
23802;SDS011;12082;51.786;6.018;2022-08-20T03:34:14;20.10;;;12.73;;
23802;SDS011;12082;51.786;6.018;2022-08-20T03:36:39;19.07;;;12.53;;
23802;SDS011;12082;51.786;6.018;2022-08-20T03:39:05;16.23;;;11.90;;
23802;SDS011;12082;51.786;6.018;2022-08-20T03:41:35;17.00;;;11.80;;
23802;SDS011;12082;51.786;6.018;2022-08-20T03:44:01;19.77;;;12.60;;
23802;SDS011;12082;51.786;6.018;2022-08-20T03:46:27;14.87;;;11.57;;
23802;SDS011;12082;51.786;6.018;2022-08-20T03:48:53;23.37;;;13.10;;
23802;SDS011;12082;51.786;6.018;2022-08-20T03:51:19;19.23;;;12.50;;
23802;SDS011;12082;51.786;6.018;2022-08-20T03:53:44;21.83;;;13.77;;
23802;SDS011;12082;51.786;6.018;2022-08-20T03:56:11;19.33;;;12.83;;
23802;SDS011;12082;51.786;6.018;2022-08-20T03:58:36;16.70;;;11.90;;
23802;SDS011;12082;51.786;6.018;2022-08-20T04:01:03;15.43;;;11.33;;
23802;SDS011;12082;51.786;6.018;2022-08-20T04:03:30;18.57;;;11.90;;
23802;SDS011;12082;51.786;6.018;2022-08-20T04:05:56;17.47;;;12.77;;
23802;SDS011;12082;51.786;6.018;2022-08-20T04:08:23;20.27;;;11.43;;
23802;SDS011;12082;51.786;6.018;2022-08-20T04:10:54;19.03;;;12.80;;
23802;SDS011;12082;51.786;6.018;2022-08-20T04:13:22;20.87;;;13.20;;
23802;SDS011;12082;51.786;6.018;2022-08-20T04:15:48;22.83;;;12.60;;
23802;SDS011;12082;51.786;6.018;2022-08-20T04:18:14;15.90;;;11.60;;
23802;SDS011;12082;51.786;6.018;2022-08-20T04:20:44;22.43;;;12.27;;
23802;SDS011;12082;51.786;6.018;2022-08-20T04:23:10;21.80;;;12.90;;
23802;SDS011;12082;51.786;6.018;2022-08-20T04:25:38;22.50;;;14.20;;
23802;SDS011;12082;51.786;6.018;2022-08-20T04:28:08;17.73;;;11.73;;
23802;SDS011;12082;51.786;6.018;2022-08-20T04:30:40;18.13;;;11.83;;
23802;SDS011;12082;51.786;6.018;2022-08-20T04:33:07;17.57;;;12.50;;
23802;SDS011;12082;51.786;6.018;2022-08-20T04:35:33;18.53;;;12.30;;
23802;SDS011;12082;51.786;6.018;2022-08-20T04:38:04;17.00;;;11.30;;
23802;SDS011;12082;51.786;6.018;2022-08-20T04:40:32;17.63;;;11.10;;
23802;SDS011;12082;51.786;6.018;2022-08-20T04:43:17;15.67;;;10.93;;
23802;SDS011;12082;51.786;6.018;2022-08-20T04:45:46;29.27;;;15.97;;
23802;SDS011;12082;51.786;6.018;2022-08-20T04:48:13;30.03;;;18.17;;
23802;SDS011;12082;51.786;6.018;2022-08-20T04:50:40;29.47;;;17.87;;
23802;SDS011;12082;51.786;6.018;2022-08-20T04:53:09;31.97;;;18.17;;
23802;SDS011;12082;51.786;6.018;2022-08-20T04:55:38;34.00;;;18.93;;
23802;SDS011;12082;51.786;6.018;2022-08-20T04:58:26;35.73;;;20.13;;
23802;SDS011;12082;51.786;6.018;2022-08-20T05:00:55;35.43;;;19.77;;
23802;SDS011;12082;51.786;6.018;2022-08-20T05:03:22;38.20;;;18.17;;
23802;SDS011;12082;51.786;6.018;2022-08-20T05:05:48;25.67;;;14.60;;
23802;SDS011;12082;51.786;6.018;2022-08-20T05:08:16;26.30;;;15.07;;
23802;SDS011;12082;51.786;6.018;2022-08-20T05:10:43;26.83;;;15.00;;
23802;SDS011;12082;51.786;6.018;2022-08-20T05:13:08;22.43;;;14.00;;
23802;SDS011;12082;51.786;6.018;2022-08-20T05:15:35;23.03;;;14.60;;
23802;SDS011;12082;51.786;6.018;2022-08-20T05:18:03;29.07;;;16.73;;
23802;SDS011;12082;51.786;6.018;2022-08-20T05:20:32;33.97;;;17.93;;
23802;SDS011;12082;51.786;6.018;2022-08-20T05:23:00;34.53;;;17.97;;
23802;SDS011;12082;51.786;6.018;2022-08-20T05:25:27;31.20;;;18.23;;
23802;SDS011;12082;51.786;6.018;2022-08-20T05:28:00;33.10;;;18.83;;
23802;SDS011;12082;51.786;6.018;2022-08-20T05:30:33;34.97;;;18.63;;
23802;SDS011;12082;51.786;6.018;2022-08-20T05:33:04;31.10;;;17.60;;
23802;SDS011;12082;51.786;6.018;2022-08-20T05:35:32;32.57;;;17.57;;
23802;SDS011;12082;51.786;6.018;2022-08-20T05:38:00;32.67;;;18.40;;
23802;SDS011;12082;51.786;6.018;2022-08-20T05:40:26;34.97;;;18.87;;
23802;SDS011;12082;51.786;6.018;2022-08-20T05:42:52;29.10;;;17.10;;
23802;SDS011;12082;51.786;6.018;2022-08-20T05:45:19;29.57;;;17.47;;
23802;SDS011;12082;51.786;6.018;2022-08-20T05:47:45;31.00;;;18.93;;
23802;SDS011;12082;51.786;6.018;2022-08-20T05:50:12;38.90;;;19.47;;
23802;SDS011;12082;51.786;6.018;2022-08-20T05:52:39;33.20;;;18.13;;
23802;SDS011;12082;51.786;6.018;2022-08-20T05:55:05;30.40;;;18.00;;
23802;SDS011;12082;51.786;6.018;2022-08-20T05:57:33;35.17;;;19.40;;
23802;SDS011;12082;51.786;6.018;2022-08-20T05:59:59;34.17;;;19.67;;
23802;SDS011;12082;51.786;6.018;2022-08-20T06:02:27;39.13;;;19.37;;
23802;SDS011;12082;51.786;6.018;2022-08-20T06:05:11;30.10;;;18.57;;
23802;SDS011;12082;51.786;6.018;2022-08-20T06:07:37;29.17;;;17.17;;
23802;SDS011;12082;51.786;6.018;2022-08-20T06:10:03;29.20;;;18.17;;
23802;SDS011;12082;51.786;6.018;2022-08-20T06:12:30;32.27;;;18.50;;
23802;SDS011;12082;51.786;6.018;2022-08-20T06:14:56;32.97;;;19.20;;
23802;SDS011;12082;51.786;6.018;2022-08-20T06:17:22;30.77;;;18.53;;
23802;SDS011;12082;51.786;6.018;2022-08-20T06:19:48;27.00;;;17.10;;
23802;SDS011;12082;51.786;6.018;2022-08-20T06:22:14;25.80;;;17.20;;
23802;SDS011;12082;51.786;6.018;2022-08-20T06:24:40;28.00;;;18.03;;
23802;SDS011;12082;51.786;6.018;2022-08-20T06:27:05;24.70;;;16.43;;
23802;SDS011;12082;51.786;6.018;2022-08-20T06:29:31;23.87;;;16.37;;
23802;SDS011;12082;51.786;6.018;2022-08-20T06:31:57;27.00;;;18.37;;
23802;SDS011;12082;51.786;6.018;2022-08-20T06:34:25;20.50;;;15.17;;
23802;SDS011;12082;51.786;6.018;2022-08-20T06:36:52;18.57;;;13.47;;
23802;SDS011;12082;51.786;6.018;2022-08-20T06:39:18;17.83;;;14.07;;
23802;SDS011;12082;51.786;6.018;2022-08-20T06:41:44;21.60;;;14.73;;
23802;SDS011;12082;51.786;6.018;2022-08-20T06:44:09;19.10;;;14.23;;
23802;SDS011;12082;51.786;6.018;2022-08-20T06:46:35;28.70;;;15.47;;
23802;SDS011;12082;51.786;6.018;2022-08-20T06:49:03;30.17;;;17.97;;
23802;SDS011;12082;51.786;6.018;2022-08-20T06:51:29;32.73;;;18.33;;
23802;SDS011;12082;51.786;6.018;2022-08-20T06:53:55;33.83;;;17.73;;
23802;SDS011;12082;51.786;6.018;2022-08-20T06:56:21;27.27;;;16.40;;
23802;SDS011;12082;51.786;6.018;2022-08-20T06:58:47;18.83;;;13.33;;
23802;SDS011;12082;51.786;6.018;2022-08-20T07:01:13;19.13;;;12.30;;
23802;SDS011;12082;51.786;6.018;2022-08-20T07:03:39;24.33;;;13.17;;
23802;SDS011;12082;51.786;6.018;2022-08-20T07:06:06;16.33;;;11.30;;
23802;SDS011;12082;51.786;6.018;2022-08-20T07:08:32;15.87;;;10.17;;
23802;SDS011;12082;51.786;6.018;2022-08-20T07:10:59;13.10;;;8.97;;
23802;SDS011;12082;51.786;6.018;2022-08-20T07:13:26;11.70;;;8.57;;
23802;SDS011;12082;51.786;6.018;2022-08-20T07:15:52;12.30;;;8.90;;
23802;SDS011;12082;51.786;6.018;2022-08-20T07:18:18;18.40;;;11.90;;
23802;SDS011;12082;51.786;6.018;2022-08-20T07:20:45;19.57;;;12.10;;
23802;SDS011;12082;51.786;6.018;2022-08-20T07:23:11;20.47;;;12.03;;
23802;SDS011;12082;51.786;6.018;2022-08-20T07:25:37;25.90;;;16.30;;
23802;SDS011;12082;51.786;6.018;2022-08-20T07:28:13;25.73;;;16.23;;
23802;SDS011;12082;51.786;6.018;2022-08-20T07:30:42;25.40;;;15.47;;
23802;SDS011;12082;51.786;6.018;2022-08-20T07:33:28;24.90;;;14.93;;
23802;SDS011;12082;51.786;6.018;2022-08-20T07:35:55;21.57;;;13.83;;
23802;SDS011;12082;51.786;6.018;2022-08-20T07:38:22;20.77;;;13.57;;
23802;SDS011;12082;51.786;6.018;2022-08-20T07:40:53;30.53;;;16.30;;
23802;SDS011;12082;51.786;6.018;2022-08-20T07:43:21;30.97;;;17.13;;
23802;SDS011;12082;51.786;6.018;2022-08-20T07:45:48;25.10;;;15.73;;
23802;SDS011;12082;51.786;6.018;2022-08-20T07:48:19;15.93;;;11.53;;
23802;SDS011;12082;51.786;6.018;2022-08-20T07:50:45;17.63;;;12.60;;
23802;SDS011;12082;51.786;6.018;2022-08-20T07:53:12;14.13;;;10.20;;
23802;SDS011;12082;51.786;6.018;2022-08-20T07:55:37;16.10;;;8.53;;
23802;SDS011;12082;51.786;6.018;2022-08-20T07:58:06;9.90;;;8.00;;
23802;SDS011;12082;51.786;6.018;2022-08-20T08:00:34;11.80;;;8.57;;
23802;SDS011;12082;51.786;6.018;2022-08-20T08:03:00;10.53;;;8.10;;
23802;SDS011;12082;51.786;6.018;2022-08-20T08:05:25;11.40;;;6.30;;
23802;SDS011;12082;51.786;6.018;2022-08-20T08:07:51;8.13;;;6.63;;
23802;SDS011;12082;51.786;6.018;2022-08-20T08:10:17;7.47;;;6.23;;
23802;SDS011;12082;51.786;6.018;2022-08-20T08:12:46;6.47;;;5.23;;
23802;SDS011;12082;51.786;6.018;2022-08-20T08:15:19;7.07;;;6.33;;
23802;SDS011;12082;51.786;6.018;2022-08-20T08:17:48;7.43;;;5.70;;
23802;SDS011;12082;51.786;6.018;2022-08-20T08:20:16;5.70;;;4.97;;
23802;SDS011;12082;51.786;6.018;2022-08-20T08:22:44;6.80;;;3.70;;
23802;SDS011;12082;51.786;6.018;2022-08-20T08:25:10;5.90;;;4.00;;
23802;SDS011;12082;51.786;6.018;2022-08-20T08:27:38;4.63;;;3.83;;
23802;SDS011;12082;51.786;6.018;2022-08-20T08:30:04;5.67;;;3.70;;
23802;SDS011;12082;51.786;6.018;2022-08-20T08:32:31;5.67;;;3.50;;
23802;SDS011;12082;51.786;6.018;2022-08-20T08:34:57;5.07;;;3.57;;
23802;SDS011;12082;51.786;6.018;2022-08-20T08:37:26;5.00;;;3.73;;
23802;SDS011;12082;51.786;6.018;2022-08-20T08:39:52;6.03;;;3.47;;
23802;SDS011;12082;51.786;6.018;2022-08-20T08:42:51;6.07;;;4.10;;
23802;SDS011;12082;51.786;6.018;2022-08-20T08:45:19;9.40;;;5.10;;
23802;SDS011;12082;51.786;6.018;2022-08-20T08:47:46;4.53;;;3.47;;
23802;SDS011;12082;51.786;6.018;2022-08-20T08:50:18;8.87;;;4.00;;
23802;SDS011;12082;51.786;6.018;2022-08-20T08:52:50;4.20;;;2.70;;
23802;SDS011;12082;51.786;6.018;2022-08-20T08:55:23;4.40;;;2.30;;
23802;SDS011;12082;51.786;6.018;2022-08-20T08:57:50;4.83;;;2.20;;
23802;SDS011;12082;51.786;6.018;2022-08-20T09:00:20;5.63;;;2.27;;
23802;SDS011;12082;51.786;6.018;2022-08-20T09:03:02;5.83;;;2.43;;
23802;SDS011;12082;51.786;6.018;2022-08-20T09:05:38;4.13;;;2.40;;
23802;SDS011;12082;51.786;6.018;2022-08-20T09:08:09;6.50;;;2.50;;
23802;SDS011;12082;51.786;6.018;2022-08-20T09:10:39;4.83;;;2.50;;
23802;SDS011;12082;51.786;6.018;2022-08-20T09:13:06;5.77;;;2.83;;
23802;SDS011;12082;51.786;6.018;2022-08-20T09:15:33;5.37;;;2.60;;
23802;SDS011;12082;51.786;6.018;2022-08-20T09:17:58;3.47;;;2.47;;
23802;SDS011;12082;51.786;6.018;2022-08-20T09:20:25;6.50;;;2.83;;
23802;SDS011;12082;51.786;6.018;2022-08-20T09:22:51;3.50;;;2.30;;
23802;SDS011;12082;51.786;6.018;2022-08-20T09:25:16;4.83;;;2.57;;
23802;SDS011;12082;51.786;6.018;2022-08-20T09:27:43;4.93;;;2.70;;
23802;SDS011;12082;51.786;6.018;2022-08-20T09:30:09;7.83;;;2.67;;
23802;SDS011;12082;51.786;6.018;2022-08-20T09:32:35;7.00;;;3.33;;
23802;SDS011;12082;51.786;6.018;2022-08-20T09:35:01;12.83;;;3.27;;
23802;SDS011;12082;51.786;6.018;2022-08-20T09:37:28;4.90;;;2.63;;
23802;SDS011;12082;51.786;6.018;2022-08-20T09:39:55;5.97;;;2.20;;
23802;SDS011;12082;51.786;6.018;2022-08-20T09:42:22;8.87;;;3.37;;
23802;SDS011;12082;51.786;6.018;2022-08-20T09:44:50;7.87;;;2.97;;
23802;SDS011;12082;51.786;6.018;2022-08-20T09:47:16;8.70;;;2.77;;
23802;SDS011;12082;51.786;6.018;2022-08-20T09:49:43;8.73;;;3.07;;
23802;SDS011;12082;51.786;6.018;2022-08-20T09:52:19;7.43;;;3.03;;
23802;SDS011;12082;51.786;6.018;2022-08-20T09:54:47;10.23;;;3.40;;
23802;SDS011;12082;51.786;6.018;2022-08-20T09:57:13;7.67;;;2.73;;
23802;SDS011;12082;51.786;6.018;2022-08-20T09:59:40;5.83;;;2.40;;
23802;SDS011;12082;51.786;6.018;2022-08-20T10:02:05;10.67;;;2.97;;
23802;SDS011;12082;51.786;6.018;2022-08-20T10:04:31;8.33;;;2.57;;
23802;SDS011;12082;51.786;6.018;2022-08-20T10:06:56;7.10;;;3.43;;
23802;SDS011;12082;51.786;6.018;2022-08-20T10:09:22;6.53;;;2.47;;
23802;SDS011;12082;51.786;6.018;2022-08-20T10:11:48;8.10;;;2.57;;
23802;SDS011;12082;51.786;6.018;2022-08-20T10:14:13;9.63;;;3.30;;
23802;SDS011;12082;51.786;6.018;2022-08-20T10:16:39;7.03;;;2.80;;
23802;SDS011;12082;51.786;6.018;2022-08-20T10:19:05;9.57;;;2.83;;
23802;SDS011;12082;51.786;6.018;2022-08-20T10:21:31;6.80;;;2.83;;
23802;SDS011;12082;51.786;6.018;2022-08-20T10:23:57;7.50;;;2.80;;
23802;SDS011;12082;51.786;6.018;2022-08-20T10:26:23;12.17;;;3.70;;
23802;SDS011;12082;51.786;6.018;2022-08-20T10:28:49;7.47;;;2.90;;
23802;SDS011;12082;51.786;6.018;2022-08-20T10:31:15;7.57;;;2.87;;
23802;SDS011;12082;51.786;6.018;2022-08-20T10:33:40;11.07;;;2.93;;
23802;SDS011;12082;51.786;6.018;2022-08-20T10:36:08;8.80;;;2.93;;
23802;SDS011;12082;51.786;6.018;2022-08-20T10:38:36;6.87;;;2.53;;
23802;SDS011;12082;51.786;6.018;2022-08-20T10:41:02;8.20;;;2.77;;
23802;SDS011;12082;51.786;6.018;2022-08-20T10:43:28;8.27;;;2.43;;
23802;SDS011;12082;51.786;6.018;2022-08-20T10:45:53;6.87;;;2.53;;
23802;SDS011;12082;51.786;6.018;2022-08-20T10:48:19;9.23;;;2.53;;
23802;SDS011;12082;51.786;6.018;2022-08-20T10:50:45;7.43;;;2.40;;
23802;SDS011;12082;51.786;6.018;2022-08-20T10:53:10;7.70;;;2.83;;
23802;SDS011;12082;51.786;6.018;2022-08-20T10:55:37;6.73;;;2.20;;
23802;SDS011;12082;51.786;6.018;2022-08-20T10:58:06;6.27;;;2.57;;
23802;SDS011;12082;51.786;6.018;2022-08-20T11:00:33;6.50;;;2.20;;
23802;SDS011;12082;51.786;6.018;2022-08-20T11:02:59;10.83;;;2.63;;
23802;SDS011;12082;51.786;6.018;2022-08-20T11:05:25;8.70;;;2.47;;
23802;SDS011;12082;51.786;6.018;2022-08-20T11:07:51;9.07;;;2.50;;
23802;SDS011;12082;51.786;6.018;2022-08-20T11:10:19;11.53;;;2.37;;
23802;SDS011;12082;51.786;6.018;2022-08-20T11:12:45;7.67;;;2.30;;
23802;SDS011;12082;51.786;6.018;2022-08-20T11:15:11;5.57;;;1.90;;
23802;SDS011;12082;51.786;6.018;2022-08-20T11:17:39;11.70;;;2.37;;
23802;SDS011;12082;51.786;6.018;2022-08-20T11:20:06;9.70;;;2.53;;
23802;SDS011;12082;51.786;6.018;2022-08-20T11:22:33;9.67;;;2.73;;
23802;SDS011;12082;51.786;6.018;2022-08-20T11:24:59;8.00;;;2.10;;
23802;SDS011;12082;51.786;6.018;2022-08-20T11:27:26;7.03;;;2.57;;
23802;SDS011;12082;51.786;6.018;2022-08-20T11:29:54;9.97;;;2.40;;
23802;SDS011;12082;51.786;6.018;2022-08-20T11:32:20;6.00;;;2.10;;
23802;SDS011;12082;51.786;6.018;2022-08-20T11:34:46;10.27;;;2.37;;
23802;SDS011;12082;51.786;6.018;2022-08-20T11:37:12;12.70;;;2.57;;
23802;SDS011;12082;51.786;6.018;2022-08-20T11:39:39;7.47;;;3.27;;
23802;SDS011;12082;51.786;6.018;2022-08-20T11:42:05;9.50;;;2.33;;
23802;SDS011;12082;51.786;6.018;2022-08-20T11:44:31;8.23;;;2.53;;
23802;SDS011;12082;51.786;6.018;2022-08-20T11:47:00;6.87;;;2.17;;
23802;SDS011;12082;51.786;6.018;2022-08-20T11:49:28;8.93;;;2.03;;
23802;SDS011;12082;51.786;6.018;2022-08-20T11:51:54;8.57;;;2.00;;
23802;SDS011;12082;51.786;6.018;2022-08-20T11:54:20;7.43;;;1.80;;
23802;SDS011;12082;51.786;6.018;2022-08-20T11:56:45;7.27;;;1.73;;
23802;SDS011;12082;51.786;6.018;2022-08-20T11:59:11;7.63;;;2.10;;
23802;SDS011;12082;51.786;6.018;2022-08-20T12:01:37;9.00;;;2.30;;
23802;SDS011;12082;51.786;6.018;2022-08-20T12:04:03;9.37;;;2.00;;
23802;SDS011;12082;51.786;6.018;2022-08-20T12:06:28;8.10;;;2.70;;
23802;SDS011;12082;51.786;6.018;2022-08-20T12:08:55;11.97;;;2.43;;
23802;SDS011;12082;51.786;6.018;2022-08-20T12:11:20;11.50;;;2.10;;
23802;SDS011;12082;51.786;6.018;2022-08-20T12:13:46;11.80;;;2.10;;
23802;SDS011;12082;51.786;6.018;2022-08-20T12:16:12;5.93;;;2.27;;
23802;SDS011;12082;51.786;6.018;2022-08-20T12:18:37;10.70;;;2.17;;
23802;SDS011;12082;51.786;6.018;2022-08-20T12:21:03;6.67;;;2.30;;
23802;SDS011;12082;51.786;6.018;2022-08-20T12:23:29;7.87;;;2.53;;
23802;SDS011;12082;51.786;6.018;2022-08-20T12:25:54;5.60;;;2.00;;
23802;SDS011;12082;51.786;6.018;2022-08-20T12:28:20;8.87;;;2.03;;
23802;SDS011;12082;51.786;6.018;2022-08-20T12:30:45;10.60;;;1.93;;
23802;SDS011;12082;51.786;6.018;2022-08-20T12:33:11;6.47;;;1.90;;
23802;SDS011;12082;51.786;6.018;2022-08-20T12:35:38;6.90;;;1.90;;
23802;SDS011;12082;51.786;6.018;2022-08-20T12:38:04;7.10;;;2.07;;
23802;SDS011;12082;51.786;6.018;2022-08-20T12:40:30;5.40;;;2.30;;
23802;SDS011;12082;51.786;6.018;2022-08-20T12:42:57;8.07;;;1.97;;
23802;SDS011;12082;51.786;6.018;2022-08-20T12:45:23;9.83;;;2.00;;
23802;SDS011;12082;51.786;6.018;2022-08-20T12:47:49;5.63;;;1.87;;
23802;SDS011;12082;51.786;6.018;2022-08-20T12:52:42;11.37;;;2.00;;
23802;SDS011;12082;51.786;6.018;2022-08-20T12:55:09;5.17;;;1.90;;
23802;SDS011;12082;51.786;6.018;2022-08-20T12:57:38;7.27;;;2.03;;
23802;SDS011;12082;51.786;6.018;2022-08-20T13:00:09;6.43;;;1.87;;
23802;SDS011;12082;51.786;6.018;2022-08-20T13:02:36;4.90;;;1.70;;
23802;SDS011;12082;51.786;6.018;2022-08-20T13:05:03;8.10;;;2.20;;
23802;SDS011;12082;51.786;6.018;2022-08-20T13:07:30;6.30;;;1.70;;
23802;SDS011;12082;51.786;6.018;2022-08-20T13:09:57;7.57;;;2.10;;
23802;SDS011;12082;51.786;6.018;2022-08-20T13:12:23;7.90;;;2.10;;
23802;SDS011;12082;51.786;6.018;2022-08-20T13:14:48;7.53;;;2.60;;
23802;SDS011;12082;51.786;6.018;2022-08-20T13:17:15;7.43;;;1.90;;
23802;SDS011;12082;51.786;6.018;2022-08-20T13:19:42;8.43;;;2.20;;
23802;SDS011;12082;51.786;6.018;2022-08-20T13:22:09;8.67;;;2.50;;
23802;SDS011;12082;51.786;6.018;2022-08-20T13:24:35;6.97;;;2.50;;
23802;SDS011;12082;51.786;6.018;2022-08-20T13:27:08;4.27;;;1.80;;
23802;SDS011;12082;51.786;6.018;2022-08-20T13:29:36;7.03;;;1.80;;
23802;SDS011;12082;51.786;6.018;2022-08-20T13:32:02;8.13;;;1.90;;
23802;SDS011;12082;51.786;6.018;2022-08-20T13:34:28;8.00;;;2.37;;
23802;SDS011;12082;51.786;6.018;2022-08-20T13:36:54;4.33;;;1.90;;
23802;SDS011;12082;51.786;6.018;2022-08-20T13:39:20;4.63;;;1.93;;
23802;SDS011;12082;51.786;6.018;2022-08-20T13:41:46;7.07;;;1.83;;
23802;SDS011;12082;51.786;6.018;2022-08-20T13:44:12;8.53;;;1.97;;
23802;SDS011;12082;51.786;6.018;2022-08-20T13:46:38;9.03;;;1.97;;
23802;SDS011;12082;51.786;6.018;2022-08-20T13:49:03;7.13;;;2.00;;
23802;SDS011;12082;51.786;6.018;2022-08-20T13:51:29;6.00;;;2.43;;
23802;SDS011;12082;51.786;6.018;2022-08-20T13:53:54;5.77;;;1.80;;
23802;SDS011;12082;51.786;6.018;2022-08-20T13:56:20;7.03;;;1.83;;
23802;SDS011;12082;51.786;6.018;2022-08-20T13:58:46;4.43;;;1.73;;
23802;SDS011;12082;51.786;6.018;2022-08-20T14:01:12;7.23;;;2.87;;
23802;SDS011;12082;51.786;6.018;2022-08-20T14:03:38;5.07;;;2.00;;
23802;SDS011;12082;51.786;6.018;2022-08-20T14:06:03;7.03;;;2.00;;
23802;SDS011;12082;51.786;6.018;2022-08-20T14:08:29;11.33;;;2.20;;
23802;SDS011;12082;51.786;6.018;2022-08-20T14:10:55;8.03;;;2.10;;
23802;SDS011;12082;51.786;6.018;2022-08-20T14:13:22;14.67;;;1.90;;
23802;SDS011;12082;51.786;6.018;2022-08-20T14:15:49;8.17;;;2.57;;
23802;SDS011;12082;51.786;6.018;2022-08-20T14:18:14;7.83;;;1.97;;
23802;SDS011;12082;51.786;6.018;2022-08-20T14:20:41;8.70;;;1.70;;
23802;SDS011;12082;51.786;6.018;2022-08-20T14:23:08;7.90;;;2.20;;
23802;SDS011;12082;51.786;6.018;2022-08-20T14:25:33;7.43;;;2.13;;
23802;SDS011;12082;51.786;6.018;2022-08-20T14:28:07;9.03;;;1.93;;
23802;SDS011;12082;51.786;6.018;2022-08-20T14:30:35;8.17;;;2.50;;
23802;SDS011;12082;51.786;6.018;2022-08-20T14:33:00;6.60;;;2.47;;
23802;SDS011;12082;51.786;6.018;2022-08-20T14:35:26;5.67;;;2.13;;
23802;SDS011;12082;51.786;6.018;2022-08-20T14:37:52;7.90;;;2.17;;
23802;SDS011;12082;51.786;6.018;2022-08-20T14:40:20;8.30;;;2.33;;
23802;SDS011;12082;51.786;6.018;2022-08-20T14:42:47;9.60;;;2.00;;
23802;SDS011;12082;51.786;6.018;2022-08-20T14:45:14;5.93;;;2.20;;
23802;SDS011;12082;51.786;6.018;2022-08-20T14:47:41;7.13;;;1.90;;
23802;SDS011;12082;51.786;6.018;2022-08-20T14:50:10;5.77;;;2.57;;
23802;SDS011;12082;51.786;6.018;2022-08-20T14:52:39;6.50;;;1.87;;